sensor_id;sensor_type;location;lat;lon;timestamp;P1;durP1;ratioP1;P2;durP2;ratioP2
33786;SDS011;29742;51.540;9.358;2023-11-18T00:00:51;0.45;;;0.32;;
33786;SDS011;29742;51.540;9.358;2023-11-18T00:05:51;0.73;;;0.40;;
33786;SDS011;29742;51.540;9.358;2023-11-18T00:10:51;0.60;;;0.57;;
33786;SDS011;29742;51.540;9.358;2023-11-18T00:15:52;0.50;;;0.30;;
33786;SDS011;29742;51.540;9.358;2023-11-18T00:20:52;0.43;;;0.25;;
33786;SDS011;29742;51.540;9.358;2023-11-18T00:25:53;0.55;;;0.55;;
33786;SDS011;29742;51.540;9.358;2023-11-18T00:30:53;0.30;;;0.30;;
33786;SDS011;29742;51.540;9.358;2023-11-18T00:35:53;0.52;;;0.30;;
33786;SDS011;29742;51.540;9.358;2023-11-18T00:40:54;0.30;;;0.30;;
33786;SDS011;29742;51.540;9.358;2023-11-18T00:45:54;0.50;;;0.30;;
33786;SDS011;29742;51.540;9.358;2023-11-18T00:50:55;0.40;;;0.25;;
33786;SDS011;29742;51.540;9.358;2023-11-18T00:55:56;0.65;;;0.32;;
33786;SDS011;29742;51.540;9.358;2023-11-18T01:00:56;0.38;;;0.20;;
33786;SDS011;29742;51.540;9.358;2023-11-18T01:05:57;0.30;;;0.30;;
33786;SDS011;29742;51.540;9.358;2023-11-18T01:10:58;0.38;;;0.38;;
33786;SDS011;29742;51.540;9.358;2023-11-18T01:15:58;0.40;;;0.40;;
33786;SDS011;29742;51.540;9.358;2023-11-18T01:20:59;0.28;;;0.28;;
33786;SDS011;29742;51.540;9.358;2023-11-18T01:25:59;0.57;;;0.30;;
33786;SDS011;29742;51.540;9.358;2023-11-18T01:31:00;1.85;;;0.35;;
33786;SDS011;29742;51.540;9.358;2023-11-18T01:36:00;0.30;;;0.30;;
33786;SDS011;29742;51.540;9.358;2023-11-18T01:41:01;0.65;;;0.45;;
33786;SDS011;29742;51.540;9.358;2023-11-18T01:46:02;0.30;;;0.30;;
33786;SDS011;29742;51.540;9.358;2023-11-18T01:51:04;0.70;;;0.40;;
33786;SDS011;29742;51.540;9.358;2023-11-18T01:56:05;0.30;;;0.30;;
33786;SDS011;29742;51.540;9.358;2023-11-18T02:01:06;0.57;;;0.45;;
33786;SDS011;29742;51.540;9.358;2023-11-18T02:06:08;0.45;;;0.40;;
33786;SDS011;29742;51.540;9.358;2023-11-18T02:11:14;0.47;;;0.30;;
33786;SDS011;29742;51.540;9.358;2023-11-18T02:16:17;0.32;;;0.32;;
33786;SDS011;29742;51.540;9.358;2023-11-18T02:21:19;1.80;;;0.50;;
33786;SDS011;29742;51.540;9.358;2023-11-18T02:26:20;0.95;;;0.68;;
33786;SDS011;29742;51.540;9.358;2023-11-18T02:31:30;0.22;;;0.22;;
33786;SDS011;29742;51.540;9.358;2023-11-18T02:36:37;0.90;;;0.60;;
33786;SDS011;29742;51.540;9.358;2023-11-18T02:41:40;0.88;;;0.60;;
33786;SDS011;29742;51.540;9.358;2023-11-18T02:46:41;0.57;;;0.25;;
33786;SDS011;29742;51.540;9.358;2023-11-18T02:51:43;0.47;;;0.40;;
33786;SDS011;29742;51.540;9.358;2023-11-18T02:56:47;0.30;;;0.30;;
33786;SDS011;29742;51.540;9.358;2023-11-18T03:01:47;0.50;;;0.47;;
33786;SDS011;29742;51.540;9.358;2023-11-18T03:06:48;0.80;;;0.50;;
33786;SDS011;29742;51.540;9.358;2023-11-18T03:11:48;0.40;;;0.40;;
33786;SDS011;29742;51.540;9.358;2023-11-18T03:16:51;0.30;;;0.25;;
33786;SDS011;29742;51.540;9.358;2023-11-18T03:21:51;0.68;;;0.50;;
33786;SDS011;29742;51.540;9.358;2023-11-18T03:26:55;1.10;;;0.30;;
33786;SDS011;29742;51.540;9.358;2023-11-18T03:31:55;0.30;;;0.20;;
33786;SDS011;29742;51.540;9.358;2023-11-18T03:36:55;0.75;;;0.43;;
33786;SDS011;29742;51.540;9.358;2023-11-18T03:41:57;0.35;;;0.35;;
33786;SDS011;29742;51.540;9.358;2023-11-18T03:46:57;1.02;;;0.60;;
33786;SDS011;29742;51.540;9.358;2023-11-18T03:51:57;0.52;;;0.28;;
33786;SDS011;29742;51.540;9.358;2023-11-18T03:56:58;0.40;;;0.30;;
33786;SDS011;29742;51.540;9.358;2023-11-18T04:01:59;0.50;;;0.40;;
33786;SDS011;29742;51.540;9.358;2023-11-18T04:06:59;0.98;;;0.38;;
33786;SDS011;29742;51.540;9.358;2023-11-18T04:12:03;0.40;;;0.40;;
33786;SDS011;29742;51.540;9.358;2023-11-18T04:17:05;0.50;;;0.40;;
33786;SDS011;29742;51.540;9.358;2023-11-18T04:22:06;0.30;;;0.30;;
33786;SDS011;29742;51.540;9.358;2023-11-18T04:27:06;0.50;;;0.30;;
33786;SDS011;29742;51.540;9.358;2023-11-18T04:32:06;0.40;;;0.30;;
33786;SDS011;29742;51.540;9.358;2023-11-18T04:37:10;0.27;;;0.23;;
33786;SDS011;29742;51.540;9.358;2023-11-18T04:42:10;0.90;;;0.40;;
33786;SDS011;29742;51.540;9.358;2023-11-18T04:47:11;0.30;;;0.30;;
33786;SDS011;29742;51.540;9.358;2023-11-18T04:52:11;0.47;;;0.38;;
33786;SDS011;29742;51.540;9.358;2023-11-18T04:57:12;0.40;;;0.40;;
33786;SDS011;29742;51.540;9.358;2023-11-18T05:02:12;0.40;;;0.30;;
33786;SDS011;29742;51.540;9.358;2023-11-18T05:07:12;0.22;;;0.22;;
33786;SDS011;29742;51.540;9.358;2023-11-18T05:12:13;0.65;;;0.50;;
33786;SDS011;29742;51.540;9.358;2023-11-18T05:17:13;0.30;;;0.30;;
33786;SDS011;29742;51.540;9.358;2023-11-18T05:22:14;0.65;;;0.30;;
33786;SDS011;29742;51.540;9.358;2023-11-18T05:27:14;0.70;;;0.50;;
33786;SDS011;29742;51.540;9.358;2023-11-18T05:32:15;0.47;;;0.40;;
33786;SDS011;29742;51.540;9.358;2023-11-18T05:37:15;0.30;;;0.30;;
33786;SDS011;29742;51.540;9.358;2023-11-18T05:42:18;0.77;;;0.30;;
33786;SDS011;29742;51.540;9.358;2023-11-18T05:47:18;0.57;;;0.35;;
33786;SDS011;29742;51.540;9.358;2023-11-18T05:52:19;0.30;;;0.28;;
33786;SDS011;29742;51.540;9.358;2023-11-18T05:57:20;0.30;;;0.30;;
33786;SDS011;29742;51.540;9.358;2023-11-18T06:02:21;0.22;;;0.13;;
33786;SDS011;29742;51.540;9.358;2023-11-18T06:07:23;0.57;;;0.35;;
33786;SDS011;29742;51.540;9.358;2023-11-18T06:12:24;0.20;;;0.20;;
33786;SDS011;29742;51.540;9.358;2023-11-18T06:17:24;0.50;;;0.35;;
33786;SDS011;29742;51.540;9.358;2023-11-18T06:22:24;0.43;;;0.22;;
33786;SDS011;29742;51.540;9.358;2023-11-18T06:27:25;0.30;;;0.30;;
33786;SDS011;29742;51.540;9.358;2023-11-18T06:32:25;0.52;;;0.35;;
33786;SDS011;29742;51.540;9.358;2023-11-18T06:37:31;0.85;;;0.30;;
33786;SDS011;29742;51.540;9.358;2023-11-18T06:42:32;0.40;;;0.28;;
33786;SDS011;29742;51.540;9.358;2023-11-18T06:47:34;0.45;;;0.35;;
33786;SDS011;29742;51.540;9.358;2023-11-18T06:52:38;0.20;;;0.20;;
33786;SDS011;29742;51.540;9.358;2023-11-18T06:57:39;0.52;;;0.45;;
33786;SDS011;29742;51.540;9.358;2023-11-18T07:02:39;0.25;;;0.22;;
33786;SDS011;29742;51.540;9.358;2023-11-18T07:07:40;0.50;;;0.50;;
33786;SDS011;29742;51.540;9.358;2023-11-18T07:12:43;0.32;;;0.32;;
33786;SDS011;29742;51.540;9.358;2023-11-18T07:17:43;1.10;;;0.60;;
33786;SDS011;29742;51.540;9.358;2023-11-18T07:22:44;0.25;;;0.22;;
33786;SDS011;29742;51.540;9.358;2023-11-18T07:27:44;0.50;;;0.38;;
33786;SDS011;29742;51.540;9.358;2023-11-18T07:32:45;0.80;;;0.50;;
33786;SDS011;29742;51.540;9.358;2023-11-18T07:37:45;0.40;;;0.40;;
33786;SDS011;29742;51.540;9.358;2023-11-18T07:42:46;1.05;;;0.52;;
33786;SDS011;29742;51.540;9.358;2023-11-18T07:47:46;0.40;;;0.40;;
33786;SDS011;29742;51.540;9.358;2023-11-18T07:52:47;0.30;;;0.25;;
33786;SDS011;29742;51.540;9.358;2023-11-18T07:57:50;0.40;;;0.30;;
33786;SDS011;29742;51.540;9.358;2023-11-18T08:02:51;0.47;;;0.43;;
33786;SDS011;29742;51.540;9.358;2023-11-18T08:07:54;0.98;;;0.50;;
33786;SDS011;29742;51.540;9.358;2023-11-18T08:12:54;0.57;;;0.57;;
33786;SDS011;29742;51.540;9.358;2023-11-18T08:17:55;0.68;;;0.57;;
33786;SDS011;29742;51.540;9.358;2023-11-18T08:22:56;1.08;;;0.80;;
33786;SDS011;29742;51.540;9.358;2023-11-18T08:27:56;0.90;;;0.68;;
33786;SDS011;29742;51.540;9.358;2023-11-18T08:32:57;1.23;;;0.82;;
33786;SDS011;29742;51.540;9.358;2023-11-18T08:37:58;0.57;;;0.45;;
33786;SDS011;29742;51.540;9.358;2023-11-18T08:42:59;0.50;;;0.50;;
33786;SDS011;29742;51.540;9.358;2023-11-18T08:48:01;0.60;;;0.60;;
33786;SDS011;29742;51.540;9.358;2023-11-18T08:53:07;0.80;;;0.57;;
33786;SDS011;29742;51.540;9.358;2023-11-18T08:58:10;0.63;;;0.50;;
33786;SDS011;29742;51.540;9.358;2023-11-18T09:03:33;0.85;;;0.52;;
33786;SDS011;29742;51.540;9.358;2023-11-18T09:08:35;0.60;;;0.45;;
33786;SDS011;29742;51.540;9.358;2023-11-18T09:13:36;0.60;;;0.52;;
33786;SDS011;29742;51.540;9.358;2023-11-18T09:18:37;0.50;;;0.40;;
33786;SDS011;29742;51.540;9.358;2023-11-18T09:23:40;0.90;;;0.70;;
33786;SDS011;29742;51.540;9.358;2023-11-18T09:28:42;0.70;;;0.60;;
33786;SDS011;29742;51.540;9.358;2023-11-18T09:33:44;0.60;;;0.50;;
33786;SDS011;29742;51.540;9.358;2023-11-18T09:38:51;1.40;;;0.80;;
33786;SDS011;29742;51.540;9.358;2023-11-18T09:43:53;1.00;;;0.77;;
33786;SDS011;29742;51.540;9.358;2023-11-18T09:54:44;0.77;;;0.63;;
33786;SDS011;29742;51.540;9.358;2023-11-18T10:05:25;0.68;;;0.68;;
33786;SDS011;29742;51.540;9.358;2023-11-18T10:10:26;0.77;;;0.57;;
33786;SDS011;29742;51.540;9.358;2023-11-18T10:15:36;0.60;;;0.50;;
33786;SDS011;29742;51.540;9.358;2023-11-18T10:30:53;1.55;;;0.65;;
33786;SDS011;29742;51.540;9.358;2023-11-18T10:35:54;0.40;;;0.40;;
33786;SDS011;29742;51.540;9.358;2023-11-18T10:40:56;0.50;;;0.50;;
33786;SDS011;29742;51.540;9.358;2023-11-18T10:46:04;1.08;;;0.70;;
33786;SDS011;29742;51.540;9.358;2023-11-18T10:51:05;1.10;;;0.75;;
33786;SDS011;29742;51.540;9.358;2023-11-18T10:56:06;0.70;;;0.57;;
33786;SDS011;29742;51.540;9.358;2023-11-18T11:01:26;0.77;;;0.73;;
33786;SDS011;29742;51.540;9.358;2023-11-18T11:06:27;0.43;;;0.43;;
33786;SDS011;29742;51.540;9.358;2023-11-18T11:11:35;1.35;;;0.80;;
33786;SDS011;29742;51.540;9.358;2023-11-18T11:16:42;1.65;;;0.95;;
33786;SDS011;29742;51.540;9.358;2023-11-18T11:22:15;0.63;;;0.60;;
33786;SDS011;29742;51.540;9.358;2023-11-18T11:27:25;1.67;;;0.90;;
33786;SDS011;29742;51.540;9.358;2023-11-18T11:32:38;2.05;;;1.35;;
33786;SDS011;29742;51.540;9.358;2023-11-18T11:37:44;1.17;;;0.70;;
33786;SDS011;29742;51.540;9.358;2023-11-18T11:42:45;1.38;;;0.95;;
33786;SDS011;29742;51.540;9.358;2023-11-18T11:47:47;1.05;;;0.60;;
33786;SDS011;29742;51.540;9.358;2023-11-18T11:52:51;0.82;;;0.75;;
33786;SDS011;29742;51.540;9.358;2023-11-18T11:57:55;0.60;;;0.50;;
33786;SDS011;29742;51.540;9.358;2023-11-18T12:02:58;1.08;;;0.88;;
33786;SDS011;29742;51.540;9.358;2023-11-18T12:08:07;0.50;;;0.50;;
33786;SDS011;29742;51.540;9.358;2023-11-18T12:13:13;1.02;;;0.80;;
33786;SDS011;29742;51.540;9.358;2023-11-18T12:18:20;0.60;;;0.60;;
33786;SDS011;29742;51.540;9.358;2023-11-18T12:23:21;0.80;;;0.63;;
33786;SDS011;29742;51.540;9.358;2023-11-18T12:28:25;0.60;;;0.60;;
33786;SDS011;29742;51.540;9.358;2023-11-18T12:49:38;0.57;;;0.35;;
33786;SDS011;29742;51.540;9.358;2023-11-18T12:54:41;2.05;;;0.55;;
33786;SDS011;29742;51.540;9.358;2023-11-18T12:59:43;0.43;;;0.40;;
33786;SDS011;29742;51.540;9.358;2023-11-18T13:04:44;0.43;;;0.38;;
33786;SDS011;29742;51.540;9.358;2023-11-18T13:09:47;0.40;;;0.40;;
33786;SDS011;29742;51.540;9.358;2023-11-18T13:14:48;0.95;;;0.30;;
33786;SDS011;29742;51.540;9.358;2023-11-18T13:19:48;0.60;;;0.43;;
33786;SDS011;29742;51.540;9.358;2023-11-18T13:24:51;0.60;;;0.55;;
33786;SDS011;29742;51.540;9.358;2023-11-18T13:29:51;0.55;;;0.47;;
33786;SDS011;29742;51.540;9.358;2023-11-18T13:34:53;0.93;;;0.50;;
33786;SDS011;29742;51.540;9.358;2023-11-18T13:39:55;0.45;;;0.45;;
33786;SDS011;29742;51.540;9.358;2023-11-18T13:44:59;0.93;;;0.70;;
33786;SDS011;29742;51.540;9.358;2023-11-18T13:55:00;0.80;;;0.60;;
33786;SDS011;29742;51.540;9.358;2023-11-18T14:00:01;0.70;;;0.52;;
33786;SDS011;29742;51.540;9.358;2023-11-18T14:05:02;1.00;;;0.70;;
33786;SDS011;29742;51.540;9.358;2023-11-18T14:10:05;0.65;;;0.50;;
33786;SDS011;29742;51.540;9.358;2023-11-18T14:15:08;0.63;;;0.47;;
33786;SDS011;29742;51.540;9.358;2023-11-18T14:20:10;0.50;;;0.50;;
33786;SDS011;29742;51.540;9.358;2023-11-18T14:25:13;0.60;;;0.50;;
33786;SDS011;29742;51.540;9.358;2023-11-18T14:30:13;0.80;;;0.50;;
33786;SDS011;29742;51.540;9.358;2023-11-18T14:35:14;1.58;;;0.90;;
33786;SDS011;29742;51.540;9.358;2023-11-18T14:40:17;0.68;;;0.52;;
33786;SDS011;29742;51.540;9.358;2023-11-18T14:45:18;1.27;;;0.85;;
33786;SDS011;29742;51.540;9.358;2023-11-18T14:50:19;1.48;;;0.90;;
33786;SDS011;29742;51.540;9.358;2023-11-18T14:55:20;1.63;;;1.08;;
33786;SDS011;29742;51.540;9.358;2023-11-18T15:00:21;1.70;;;1.10;;
33786;SDS011;29742;51.540;9.358;2023-11-18T15:05:32;1.17;;;0.93;;
33786;SDS011;29742;51.540;9.358;2023-11-18T15:10:34;2.70;;;1.00;;
33786;SDS011;29742;51.540;9.358;2023-11-18T15:15:37;0.98;;;0.88;;
33786;SDS011;29742;51.540;9.358;2023-11-18T15:20:37;1.17;;;1.00;;
33786;SDS011;29742;51.540;9.358;2023-11-18T15:25:39;0.90;;;0.75;;
33786;SDS011;29742;51.540;9.358;2023-11-18T15:30:39;0.55;;;0.50;;
33786;SDS011;29742;51.540;9.358;2023-11-18T15:35:40;0.93;;;0.60;;
33786;SDS011;29742;51.540;9.358;2023-11-18T15:40:43;0.60;;;0.52;;
33786;SDS011;29742;51.540;9.358;2023-11-18T15:45:44;2.25;;;0.73;;
33786;SDS011;29742;51.540;9.358;2023-11-18T15:50:44;0.60;;;0.50;;
33786;SDS011;29742;51.540;9.358;2023-11-18T15:55:45;1.10;;;0.85;;
33786;SDS011;29742;51.540;9.358;2023-11-18T16:00:47;0.63;;;0.52;;
33786;SDS011;29742;51.540;9.358;2023-11-18T16:05:47;0.95;;;0.77;;
33786;SDS011;29742;51.540;9.358;2023-11-18T16:10:49;0.88;;;0.70;;
33786;SDS011;29742;51.540;9.358;2023-11-18T16:15:49;1.27;;;0.77;;
33786;SDS011;29742;51.540;9.358;2023-11-18T16:20:50;1.05;;;0.75;;
33786;SDS011;29742;51.540;9.358;2023-11-18T16:25:51;0.65;;;0.65;;
33786;SDS011;29742;51.540;9.358;2023-11-18T16:30:52;0.82;;;0.70;;
33786;SDS011;29742;51.540;9.358;2023-11-18T16:35:52;0.70;;;0.60;;
33786;SDS011;29742;51.540;9.358;2023-11-18T16:40:53;0.85;;;0.65;;
33786;SDS011;29742;51.540;9.358;2023-11-18T16:45:53;0.68;;;0.68;;
33786;SDS011;29742;51.540;9.358;2023-11-18T16:50:54;0.77;;;0.68;;
33786;SDS011;29742;51.540;9.358;2023-11-18T16:55:54;0.95;;;0.85;;
33786;SDS011;29742;51.540;9.358;2023-11-18T17:00:54;0.68;;;0.63;;
33786;SDS011;29742;51.540;9.358;2023-11-18T17:05:55;0.65;;;0.52;;
33786;SDS011;29742;51.540;9.358;2023-11-18T17:10:56;0.60;;;0.52;;
33786;SDS011;29742;51.540;9.358;2023-11-18T17:15:56;0.73;;;0.60;;
33786;SDS011;29742;51.540;9.358;2023-11-18T17:20:57;0.65;;;0.52;;
33786;SDS011;29742;51.540;9.358;2023-11-18T17:25:57;0.60;;;0.50;;
33786;SDS011;29742;51.540;9.358;2023-11-18T17:30:57;0.80;;;0.60;;
33786;SDS011;29742;51.540;9.358;2023-11-18T17:35:58;0.52;;;0.50;;
33786;SDS011;29742;51.540;9.358;2023-11-18T17:40:58;0.63;;;0.45;;
33786;SDS011;29742;51.540;9.358;2023-11-18T17:45:58;0.65;;;0.65;;
33786;SDS011;29742;51.540;9.358;2023-11-18T17:50:59;0.35;;;0.35;;
33786;SDS011;29742;51.540;9.358;2023-11-18T17:55:59;0.52;;;0.52;;
33786;SDS011;29742;51.540;9.358;2023-11-18T18:01:00;1.35;;;0.80;;
33786;SDS011;29742;51.540;9.358;2023-11-18T18:06:01;0.30;;;0.30;;
33786;SDS011;29742;51.540;9.358;2023-11-18T18:11:02;0.43;;;0.43;;
33786;SDS011;29742;51.540;9.358;2023-11-18T18:16:03;0.47;;;0.45;;
33786;SDS011;29742;51.540;9.358;2023-11-18T18:21:04;0.95;;;0.68;;
33786;SDS011;29742;51.540;9.358;2023-11-18T18:26:04;0.95;;;0.60;;
33786;SDS011;29742;51.540;9.358;2023-11-18T18:31:05;0.50;;;0.28;;
33786;SDS011;29742;51.540;9.358;2023-11-18T18:36:08;0.40;;;0.40;;
33786;SDS011;29742;51.540;9.358;2023-11-18T18:41:09;0.43;;;0.30;;
33786;SDS011;29742;51.540;9.358;2023-11-18T18:46:10;0.30;;;0.30;;
33786;SDS011;29742;51.540;9.358;2023-11-18T18:51:11;0.30;;;0.30;;
33786;SDS011;29742;51.540;9.358;2023-11-18T18:56:11;0.40;;;0.30;;
33786;SDS011;29742;51.540;9.358;2023-11-18T19:01:11;0.80;;;0.47;;
33786;SDS011;29742;51.540;9.358;2023-11-18T19:06:12;0.40;;;0.40;;
33786;SDS011;29742;51.540;9.358;2023-11-18T19:11:13;0.30;;;0.20;;
33786;SDS011;29742;51.540;9.358;2023-11-18T19:16:14;0.25;;;0.25;;
33786;SDS011;29742;51.540;9.358;2023-11-18T19:21:15;0.30;;;0.20;;
33786;SDS011;29742;51.540;9.358;2023-11-18T19:26:16;0.47;;;0.30;;
33786;SDS011;29742;51.540;9.358;2023-11-18T19:31:16;0.40;;;0.20;;
33786;SDS011;29742;51.540;9.358;2023-11-18T19:36:17;0.52;;;0.38;;
33786;SDS011;29742;51.540;9.358;2023-11-18T19:41:17;0.68;;;0.30;;
33786;SDS011;29742;51.540;9.358;2023-11-18T19:46:17;0.30;;;0.20;;
33786;SDS011;29742;51.540;9.358;2023-11-18T19:51:18;0.15;;;0.15;;
33786;SDS011;29742;51.540;9.358;2023-11-18T19:56:19;0.35;;;0.10;;
33786;SDS011;29742;51.540;9.358;2023-11-18T20:01:19;0.47;;;0.35;;
33786;SDS011;29742;51.540;9.358;2023-11-18T20:06:20;0.20;;;0.20;;
33786;SDS011;29742;51.540;9.358;2023-11-18T20:11:20;0.65;;;0.30;;
33786;SDS011;29742;51.540;9.358;2023-11-18T20:16:21;0.20;;;0.20;;
33786;SDS011;29742;51.540;9.358;2023-11-18T20:21:21;0.45;;;0.30;;
33786;SDS011;29742;51.540;9.358;2023-11-18T20:26:21;0.52;;;0.30;;
33786;SDS011;29742;51.540;9.358;2023-11-18T20:31:22;0.20;;;0.10;;
33786;SDS011;29742;51.540;9.358;2023-11-18T20:36:23;0.52;;;0.30;;
33786;SDS011;29742;51.540;9.358;2023-11-18T20:41:23;0.30;;;0.10;;
33786;SDS011;29742;51.540;9.358;2023-11-18T20:46:24;0.20;;;0.20;;
33786;SDS011;29742;51.540;9.358;2023-11-18T20:51:25;0.10;;;0.10;;
33786;SDS011;29742;51.540;9.358;2023-11-18T20:56:25;0.30;;;0.25;;
33786;SDS011;29742;51.540;9.358;2023-11-18T21:01:27;0.20;;;0.20;;
33786;SDS011;29742;51.540;9.358;2023-11-18T21:06:29;0.28;;;0.10;;
33786;SDS011;29742;51.540;9.358;2023-11-18T21:11:29;0.85;;;0.22;;
33786;SDS011;29742;51.540;9.358;2023-11-18T21:16:30;0.30;;;0.13;;
33786;SDS011;29742;51.540;9.358;2023-11-18T21:21:31;0.82;;;0.30;;
33786;SDS011;29742;51.540;9.358;2023-11-18T21:26:31;0.40;;;0.30;;
33786;SDS011;29742;51.540;9.358;2023-11-18T21:31:32;0.30;;;0.30;;
33786;SDS011;29742;51.540;9.358;2023-11-18T21:36:32;0.10;;;0.10;;
33786;SDS011;29742;51.540;9.358;2023-11-18T21:41:34;0.60;;;0.30;;
33786;SDS011;29742;51.540;9.358;2023-11-18T21:46:35;0.43;;;0.13;;
33786;SDS011;29742;51.540;9.358;2023-11-18T21:51:36;0.20;;;0.20;;
33786;SDS011;29742;51.540;9.358;2023-11-18T21:56:36;0.60;;;0.32;;
33786;SDS011;29742;51.540;9.358;2023-11-18T22:01:37;0.10;;;0.10;;
33786;SDS011;29742;51.540;9.358;2023-11-18T22:06:37;0.17;;;0.10;;
33786;SDS011;29742;51.540;9.358;2023-11-18T22:11:37;0.30;;;0.20;;
33786;SDS011;29742;51.540;9.358;2023-11-18T22:16:38;0.63;;;0.10;;
33786;SDS011;29742;51.540;9.358;2023-11-18T22:21:39;0.20;;;0.10;;
33786;SDS011;29742;51.540;9.358;2023-11-18T22:26:39;0.30;;;0.20;;
33786;SDS011;29742;51.540;9.358;2023-11-18T22:31:42;0.20;;;0.20;;
33786;SDS011;29742;51.540;9.358;2023-11-18T22:36:45;0.10;;;0.10;;
33786;SDS011;29742;51.540;9.358;2023-11-18T22:41:45;0.68;;;0.10;;
33786;SDS011;29742;51.540;9.358;2023-11-18T22:46:46;0.10;;;0.10;;
33786;SDS011;29742;51.540;9.358;2023-11-18T22:51:47;0.85;;;0.17;;
33786;SDS011;29742;51.540;9.358;2023-11-18T22:56:48;0.10;;;0.08;;
33786;SDS011;29742;51.540;9.358;2023-11-18T23:01:50;0.20;;;0.10;;
33786;SDS011;29742;51.540;9.358;2023-11-18T23:06:50;0.20;;;0.13;;
33786;SDS011;29742;51.540;9.358;2023-11-18T23:11:57;0.15;;;0.10;;
33786;SDS011;29742;51.540;9.358;2023-11-18T23:16:59;0.00;;;0.00;;
33786;SDS011;29742;51.540;9.358;2023-11-18T23:21:59;0.28;;;0.10;;
33786;SDS011;29742;51.540;9.358;2023-11-18T23:27:06;0.10;;;0.08;;
33786;SDS011;29742;51.540;9.358;2023-11-18T23:32:07;0.10;;;0.03;;
33786;SDS011;29742;51.540;9.358;2023-11-18T23:37:07;0.00;;;0.00;;
33786;SDS011;29742;51.540;9.358;2023-11-18T23:42:08;0.30;;;0.10;;
33786;SDS011;29742;51.540;9.358;2023-11-18T23:47:09;0.15;;;0.15;;
33786;SDS011;29742;51.540;9.358;2023-11-18T23:52:10;0.15;;;0.10;;
33786;SDS011;29742;51.540;9.358;2023-11-18T23:57:11;0.00;;;0.00;;
